Terminal Aerodrome Forecast
Issued by NWS

Home | Current Version | Previous Version | Text Only | Print | Product List | Glossary On
Versions: 1 2 3 4 5 6 7 8 9 10 11 12 13 14
709
FTUS44 KTSA 231120
TAFXNA
TAF
KXNA 231120Z 2312/2412 00000KT P6SM SCT250
     FM231600 32008KT P6SM VCTS BKN025CB
      TEMPO 2316/2319 4SM -TSRA BKN015CB
     FM232000 34008KT P6SM BKN035
     FM240000 35005KT P6SM BKN250=

USA.gov is the U.S. government's official web portal to all federal, state and local government web resources and services.